createdAt,value
2019-04-24T00:00:31.525Z,1.00
2019-04-24T00:03:06.762Z,1.00
2019-04-24T00:05:52.227Z,1.00
2019-04-24T00:08:16.314Z,1.00
2019-04-24T00:12:06.840Z,1.00
2019-04-24T00:13:48.960Z,1.00
2019-04-24T00:16:15.823Z,1.00
2019-04-24T00:19:04.115Z,1.00
2019-04-24T00:21:36.482Z,1.00
2019-04-24T00:26:26.736Z,1.00
2019-04-24T00:31:50.422Z,1.00
2019-04-24T00:39:21.004Z,1.00
2019-04-24T00:42:08.580Z,7.20
2019-04-24T00:44:14.541Z,10.40
2019-04-24T00:49:27.589Z,3.20
2019-04-24T00:51:56.542Z,99.90
2019-04-24T00:54:24.032Z,95.50
2019-04-24T00:57:06.848Z,98.80
2019-04-24T01:02:21.782Z,42.80
2019-04-24T01:08:02.071Z,98.70
2019-04-24T01:15:55.409Z,99.90
2019-04-24T01:18:20.217Z,99.90
2019-04-24T01:20:57.755Z,99.90
2019-04-24T01:23:18.875Z,99.90
2019-04-24T01:28:27.913Z,99.90
2019-04-24T01:31:13.497Z,99.90
2019-04-24T01:33:49.855Z,99.90
2019-04-24T01:36:39.010Z,99.90
2019-04-24T01:39:30.670Z,99.90
2019-04-24T01:42:10.828Z,99.90
2019-04-24T01:44:31.971Z,1.00
2019-04-24T01:47:12.375Z,1.00
2019-04-24T01:49:41.608Z,99.90
2019-04-24T01:52:27.887Z,99.90
2019-04-24T01:54:47.010Z,99.90
2019-04-24T01:57:11.253Z,99.90
2019-04-24T01:59:43.810Z,99.90
2019-04-24T02:02:22.128Z,99.90
2019-04-24T02:04:51.342Z,99.90
2019-04-24T02:07:25.172Z,99.90
2019-04-24T02:15:28.589Z,59.50
2019-04-24T02:23:06.765Z,99.90
2019-04-24T02:28:18.777Z,99.90
2019-04-24T02:36:30.102Z,97.10
2019-04-24T02:49:49.865Z,99.90
2019-04-24T02:52:08.565Z,99.90
2019-04-24T02:54:54.998Z,99.90
2019-04-24T03:02:29.456Z,99.90
2019-04-24T03:07:55.187Z,99.90
2019-04-24T03:15:18.522Z,99.90
2019-04-24T03:20:37.566Z,99.90
2019-04-24T03:22:48.970Z,99.90
2019-04-24T03:25:29.175Z,99.90
2019-04-24T03:35:57.429Z,99.90
2019-04-24T03:45:53.316Z,99.90
2019-04-24T03:48:53.479Z,99.90
2019-04-24T03:56:28.805Z,99.90
2019-04-24T04:02:30.706Z,99.90
2019-04-24T04:07:18.994Z,99.90
2019-04-24T04:18:25.059Z,99.90
2019-04-24T04:20:29.310Z,99.90
2019-04-24T04:23:30.219Z,99.90
2019-04-24T04:28:00.147Z,99.90
2019-04-24T04:38:58.799Z,99.90
2019-04-24T04:42:25.342Z,99.90
2019-04-24T04:58:34.722Z,99.90
2019-04-24T05:06:57.186Z,99.90
2019-04-24T05:09:36.859Z,99.90
2019-04-24T05:12:43.833Z,99.90
2019-04-24T05:16:53.000Z,99.90
2019-04-24T05:21:52.861Z,99.90
2019-04-24T05:37:55.246Z,1.00
2019-04-24T05:40:31.049Z,1.00
2019-04-24T05:45:32.390Z,1.00
2019-04-24T05:47:56.227Z,1.00
2019-04-24T05:56:34.290Z,1.00
2019-04-24T05:58:44.219Z,1.00
2019-04-24T06:07:06.147Z,1.00
2019-04-24T06:12:48.986Z,1.00
2019-04-24T06:15:49.917Z,1.00
2019-04-24T06:29:19.746Z,1.00
2019-04-24T06:34:20.022Z,1.00
2019-04-24T06:40:08.193Z,1.00
2019-04-24T06:45:35.107Z,1.00
2019-04-24T06:55:48.990Z,1.00
2019-04-24T06:58:08.607Z,1.00
2019-04-24T07:00:58.128Z,1.00
2019-04-24T07:04:03.348Z,1.00
2019-04-24T07:06:22.818Z,1.00
2019-04-24T07:09:02.242Z,1.00
2019-04-24T07:11:49.367Z,1.00
2019-04-24T07:14:34.133Z,1.00
2019-04-24T07:22:08.688Z,1.00
2019-04-24T07:24:48.250Z,1.00
2019-04-24T07:29:48.300Z,1.00
2019-04-24T07:32:40.168Z,1.00
2019-04-24T07:35:26.416Z,1.00
2019-04-24T07:37:52.654Z,1.00
2019-04-24T07:40:12.776Z,1.00
2019-04-24T07:42:57.137Z,1.00
2019-04-24T07:47:57.729Z,1.00
2019-04-24T07:51:01.818Z,1.00
2019-04-24T08:02:04.854Z,1.00
2019-04-24T08:04:32.847Z,1.00
2019-04-24T08:06:56.020Z,99.90
2019-04-24T08:10:11.077Z,99.90
2019-04-24T08:17:43.049Z,99.90
2019-04-24T08:25:08.551Z,1.00
2019-04-24T08:27:36.533Z,1.00
2019-04-24T08:30:01.918Z,1.00
2019-04-24T08:40:33.193Z,99.90
2019-04-24T08:43:15.121Z,99.90
2019-04-24T08:46:17.124Z,99.90
2019-04-24T08:49:02.919Z,99.90
2019-04-24T08:51:45.654Z,99.90
2019-04-24T08:54:04.019Z,99.90
2019-04-24T08:56:43.435Z,99.90
2019-04-24T08:59:21.955Z,99.90
2019-04-24T09:02:30.204Z,99.90
2019-04-24T09:04:55.892Z,36.90
2019-04-24T09:07:16.568Z,36.20
2019-04-24T09:15:28.975Z,27.50
2019-04-24T09:17:59.051Z,3.00
2019-04-24T09:23:02.972Z,1.00
2019-04-24T09:28:37.608Z,1.00
2019-04-24T09:31:04.753Z,1.00
2019-04-24T09:33:42.841Z,1.00
2019-04-24T09:36:42.802Z,1.00
2019-04-24T09:39:08.335Z,1.00
2019-04-24T09:41:54.281Z,1.00
2019-04-24T09:44:03.600Z,1.00
2019-04-24T09:49:13.447Z,1.00
2019-04-24T09:52:00.890Z,1.00
2019-04-24T09:55:02.143Z,1.00
2019-04-24T09:57:40.218Z,1.00
2019-04-24T09:59:57.446Z,1.00
2019-04-24T10:03:11.433Z,1.00
2019-04-24T10:13:43.819Z,99.90
2019-04-24T10:16:02.255Z,99.90
2019-04-24T10:21:30.255Z,99.90
2019-04-24T10:24:07.400Z,99.90
2019-04-24T10:26:42.587Z,99.90
2019-04-24T10:32:13.958Z,99.90
2019-04-24T10:35:08.246Z,99.90
2019-04-24T10:38:21.983Z,99.90
2019-04-24T10:40:40.908Z,99.90
2019-04-24T10:43:34.282Z,99.90
2019-04-24T10:46:24.846Z,99.90
2019-04-24T10:49:13.292Z,99.90
2019-04-24T10:54:24.386Z,99.90
2019-04-24T10:59:34.651Z,99.90
2019-04-24T11:02:29.853Z,99.90
2019-04-24T11:05:22.060Z,99.90
2019-04-24T11:08:03.920Z,99.90
2019-04-24T11:13:29.254Z,99.90
2019-04-24T11:16:41.354Z,99.90
2019-04-24T11:19:28.529Z,99.90
2019-04-24T11:24:38.351Z,99.90
2019-04-24T11:27:13.812Z,99.90
2019-04-24T11:33:19.283Z,99.90
2019-04-24T11:36:09.586Z,99.90
2019-04-24T11:41:27.989Z,99.90
2019-04-24T11:44:05.882Z,99.90
2019-04-24T11:50:00.875Z,99.90
2019-04-24T11:53:10.631Z,99.90
2019-04-24T11:55:32.865Z,99.90
2019-04-24T12:00:19.430Z,99.90
2019-04-24T12:03:02.829Z,99.90
2019-04-24T12:05:50.922Z,99.90
2019-04-24T12:08:49.015Z,99.90
2019-04-24T12:11:10.643Z,99.90
2019-04-24T12:13:55.566Z,99.90
2019-04-24T12:16:21.362Z,99.90
2019-04-24T12:18:57.712Z,99.90
2019-04-24T12:24:12.776Z,99.90
2019-04-24T12:26:49.162Z,99.90
2019-04-24T12:29:33.986Z,99.90
2019-04-24T12:32:19.152Z,99.90
2019-04-24T12:35:05.558Z,99.90
2019-04-24T12:37:29.535Z,99.90
2019-04-24T12:40:31.531Z,99.90
2019-04-24T12:42:50.711Z,99.90
2019-04-24T12:50:27.917Z,99.90
2019-04-24T12:53:03.254Z,99.90
2019-04-24T12:56:01.527Z,99.90
2019-04-24T13:01:46.835Z,99.90
2019-04-24T13:04:31.538Z,99.90
2019-04-24T13:06:41.397Z,99.90
2019-04-24T13:09:32.301Z,99.90
2019-04-24T13:12:17.512Z,99.90
2019-04-24T13:14:55.546Z,99.90
2019-04-24T13:19:28.946Z,99.90
2019-04-24T13:22:08.952Z,99.90
2019-04-24T13:24:57.789Z,99.90
2019-04-24T13:31:01.712Z,99.90
2019-04-24T13:33:17.883Z,99.90
2019-04-24T13:35:59.200Z,99.90
2019-04-24T13:38:18.929Z,99.90
2019-04-24T13:40:53.750Z,99.90
2019-04-24T13:46:06.527Z,99.90
2019-04-24T13:50:58.392Z,99.90
2019-04-24T13:56:04.604Z,99.90
2019-04-24T14:14:05.494Z,99.90
2019-04-24T14:16:48.183Z,99.90
2019-04-24T14:19:32.380Z,99.90
2019-04-24T14:21:56.128Z,99.90
2019-04-24T14:24:54.930Z,99.90
2019-04-24T14:34:52.782Z,99.90
2019-04-24T14:40:09.036Z,99.90
2019-04-24T14:42:34.433Z,99.90
2019-04-24T14:45:14.770Z,99.90
2019-04-24T14:47:37.998Z,99.90
2019-04-24T14:50:30.196Z,99.90
2019-04-24T14:52:42.092Z,99.90
2019-04-24T14:55:31.412Z,99.90
2019-04-24T14:57:56.053Z,99.90
2019-04-24T15:05:28.558Z,99.90
2019-04-24T15:08:02.769Z,99.90
2019-04-24T15:10:30.202Z,99.90
2019-04-24T15:16:11.049Z,99.90
2019-04-24T15:20:48.401Z,99.90
2019-04-24T15:25:57.057Z,99.90
2019-04-24T15:28:20.477Z,99.90
2019-04-24T15:30:58.846Z,99.90
2019-04-24T15:33:23.638Z,99.90
2019-04-24T15:36:01.319Z,99.90
2019-04-24T15:38:31.590Z,99.90
2019-04-24T15:51:16.323Z,99.90
2019-04-24T15:53:11.697Z,99.90
2019-04-24T15:55:41.972Z,99.90
2019-04-24T15:58:24.984Z,99.90
2019-04-24T16:01:25.369Z,99.90
2019-04-24T16:04:12.345Z,99.90
2019-04-24T16:06:00.225Z,99.90
2019-04-24T16:08:30.648Z,99.90
2019-04-24T16:11:01.441Z,99.90
2019-04-24T16:13:37.305Z,99.90
2019-04-24T16:16:39.998Z,99.90
2019-04-24T16:21:40.777Z,99.90
2019-04-24T16:26:59.380Z,99.90
2019-04-24T16:32:09.109Z,99.90
2019-04-24T16:34:15.025Z,99.90
2019-04-24T16:39:17.123Z,99.90
2019-04-24T16:42:08.883Z,99.90
2019-04-24T16:44:34.386Z,99.90
2019-04-24T16:54:25.504Z,99.90
2019-04-24T16:59:28.903Z,99.90
2019-04-24T17:04:53.898Z,99.90
2019-04-24T17:09:59.869Z,99.90
2019-04-24T17:12:19.987Z,99.90
2019-04-24T17:14:56.754Z,99.90
2019-04-24T17:17:47.830Z,99.90
2019-04-24T17:20:24.989Z,1.00
2019-04-24T17:25:24.386Z,19.30
2019-04-24T17:28:24.095Z,1.00
2019-04-24T17:30:41.590Z,15.90
2019-04-24T17:35:49.251Z,1.00
2019-04-24T17:37:48.396Z,99.90
2019-04-24T17:40:23.573Z,99.90
2019-04-24T17:43:18.255Z,99.90
2019-04-24T17:45:53.951Z,99.90
2019-04-24T17:48:18.831Z,99.90
2019-04-24T17:51:04.006Z,99.90
2019-04-24T17:53:27.779Z,99.90
2019-04-24T17:56:01.299Z,99.90
2019-04-24T18:01:04.551Z,99.90
2019-04-24T18:03:34.876Z,99.90
2019-04-24T18:06:06.287Z,99.90
2019-04-24T18:08:36.592Z,99.90
2019-04-24T18:11:07.076Z,99.90
2019-04-24T18:13:37.411Z,99.90
2019-04-24T18:16:07.588Z,99.90
2019-04-24T18:18:37.889Z,99.90
2019-04-24T18:21:08.098Z,99.90
2019-04-24T18:23:38.268Z,99.90
2019-04-24T18:26:27.443Z,99.90
2019-04-24T18:28:57.672Z,99.90
2019-04-24T18:31:27.877Z,99.90
2019-04-24T18:33:58.132Z,99.90
2019-04-24T18:36:29.428Z,99.90
2019-04-24T18:38:59.695Z,99.90
2019-04-24T18:41:30.094Z,99.90
2019-04-24T18:44:01.320Z,99.90
2019-04-24T18:46:32.531Z,99.90
2019-04-24T18:49:04.440Z,99.90
2019-04-24T18:51:35.892Z,99.90
2019-04-24T18:54:06.839Z,99.90
2019-04-24T18:56:38.532Z,99.90
2019-04-24T18:59:08.681Z,99.90
2019-04-24T19:01:38.854Z,99.90
2019-04-24T19:04:09.020Z,99.90
2019-04-24T19:06:39.195Z,99.90
2019-04-24T19:09:09.451Z,99.90
2019-04-24T19:11:40.528Z,99.90
2019-04-24T19:14:11.083Z,99.90
2019-04-24T19:16:41.979Z,99.90
2019-04-24T19:19:13.568Z,99.90
2019-04-24T19:21:43.804Z,99.90
2019-04-24T19:24:16.488Z,99.90
2019-04-24T19:26:47.056Z,99.90
2019-04-24T19:29:18.012Z,99.90
2019-04-24T19:31:48.255Z,99.90
2019-04-24T19:34:18.509Z,99.90
2019-04-24T19:36:48.658Z,99.90
2019-04-24T19:39:19.287Z,99.90
2019-04-24T19:41:49.639Z,99.90
2019-04-24T19:44:21.166Z,99.90
2019-04-24T19:46:52.628Z,99.90
2019-04-24T19:49:25.959Z,99.90
2019-04-24T19:51:54.888Z,99.90
2019-04-24T19:54:25.068Z,99.90
2019-04-24T19:56:58.060Z,99.90
2019-04-24T19:59:28.216Z,99.90
2019-04-24T20:01:58.543Z,99.90
2019-04-24T20:04:28.767Z,99.90
2019-04-24T20:07:00.253Z,99.90
2019-04-24T20:09:43.754Z,99.90
2019-04-24T20:12:14.163Z,99.90
2019-04-24T20:14:44.329Z,99.90
2019-04-24T20:17:14.787Z,99.90
2019-04-24T20:19:44.995Z,99.90
2019-04-24T20:22:15.163Z,99.90
2019-04-24T20:24:45.359Z,99.90
2019-04-24T20:27:15.741Z,99.90
2019-04-24T20:29:45.991Z,99.90
2019-04-24T20:32:16.242Z,99.90
2019-04-24T20:34:46.482Z,99.90
2019-04-24T20:37:16.653Z,99.90
2019-04-24T20:39:46.860Z,99.90
2019-04-24T20:42:17.366Z,99.90
2019-04-24T20:44:47.669Z,99.90
2019-04-24T20:47:18.327Z,99.90
2019-04-24T20:49:48.675Z,99.90
2019-04-24T20:52:18.855Z,99.90
2019-04-24T20:54:49.112Z,99.90
2019-04-24T20:57:19.516Z,99.90
2019-04-24T20:59:51.679Z,99.90
2019-04-24T21:02:22.697Z,99.90
2019-04-24T21:04:53.104Z,99.90
2019-04-24T21:07:54.597Z,99.90
2019-04-24T21:10:28.449Z,99.90
2019-04-24T21:15:23.276Z,99.90
2019-04-24T21:17:55.012Z,99.90
2019-04-24T21:20:26.235Z,99.90
2019-04-24T21:22:56.601Z,99.90
2019-04-24T21:25:28.555Z,99.90
2019-04-24T21:27:58.781Z,99.90
2019-04-24T21:30:28.963Z,99.90
2019-04-24T21:33:01.694Z,99.90
2019-04-24T21:35:33.514Z,99.90
2019-04-24T21:38:04.070Z,99.90
2019-04-24T21:40:34.368Z,99.90
2019-04-24T21:43:04.647Z,99.90
2019-04-24T21:45:34.905Z,99.90
2019-04-24T21:48:05.146Z,99.90
2019-04-24T21:50:35.320Z,99.90
2019-04-24T21:53:05.607Z,99.90
2019-04-24T21:55:35.934Z,99.90
2019-04-24T21:58:06.127Z,99.90
2019-04-24T22:01:04.724Z,99.90
2019-04-24T22:04:01.490Z,99.90
2019-04-24T22:06:37.232Z,99.90
2019-04-24T22:09:12.132Z,99.90
2019-04-24T22:11:42.796Z,99.90
2019-04-24T22:14:13.706Z,99.90
2019-04-24T22:16:44.323Z,99.90
2019-04-24T22:19:14.988Z,99.90
2019-04-24T22:21:52.611Z,99.90
2019-04-24T22:24:37.984Z,99.90
2019-04-24T22:27:15.654Z,99.90
2019-04-24T22:29:45.837Z,99.90
2019-04-24T22:32:27.302Z,99.90
2019-04-24T22:34:58.647Z,99.90
2019-04-24T22:37:29.094Z,99.90
2019-04-24T22:40:17.043Z,99.90
2019-04-24T22:42:47.490Z,99.90
2019-04-24T22:45:18.935Z,99.90
2019-04-24T22:47:49.121Z,99.90
2019-04-24T22:50:19.406Z,99.90
2019-04-24T22:52:49.563Z,99.90
2019-04-24T22:55:21.937Z,99.90
2019-04-24T22:57:52.216Z,99.90
2019-04-24T23:00:33.015Z,99.90
2019-04-24T23:03:03.309Z,99.90
2019-04-24T23:05:35.057Z,99.90
2019-04-24T23:08:05.263Z,99.90
2019-04-24T23:10:38.812Z,99.90
2019-04-24T23:13:08.080Z,99.90
2019-04-24T23:15:39.139Z,99.90
2019-04-24T23:18:09.427Z,99.90
2019-04-24T23:20:54.959Z,99.90
2019-04-24T23:23:50.073Z,99.90
2019-04-24T23:26:28.217Z,99.90
2019-04-24T23:29:22.165Z,99.90
2019-04-24T23:32:10.082Z,99.90
2019-04-24T23:34:42.481Z,99.90
2019-04-24T23:37:12.727Z,99.90
2019-04-24T23:39:42.859Z,99.90
2019-04-24T23:42:13.063Z,99.90
2019-04-24T23:44:43.491Z,99.90
2019-04-24T23:47:13.663Z,99.90
2019-04-24T23:49:43.849Z,99.90
2019-04-24T23:52:14.163Z,99.90
2019-04-24T23:55:01.168Z,99.90
2019-04-24T23:57:16.324Z,99.90
2019-04-24T23:59:46.908Z,99.90
